createdAt,value
2022-10-15T00:01:07.234Z,3.80
2022-10-15T00:03:37.095Z,3.90
2022-10-15T00:06:05.790Z,3.80
2022-10-15T00:08:32.973Z,3.70
2022-10-15T00:11:16.441Z,3.70
2022-10-15T00:13:43.998Z,3.70
2022-10-15T00:16:16.793Z,3.80
2022-10-15T00:18:43.893Z,3.80
2022-10-15T00:21:12.656Z,3.90
2022-10-15T00:23:39.745Z,4.00
2022-10-15T00:26:14.993Z,3.90
2022-10-15T00:28:42.107Z,3.90
2022-10-15T00:31:11.611Z,4.00
2022-10-15T00:33:39.078Z,4.00
2022-10-15T00:36:10.353Z,3.90
2022-10-15T00:38:37.446Z,4.00
2022-10-15T00:41:06.416Z,3.90
2022-10-15T00:43:40.250Z,3.90
2022-10-15T00:46:18.011Z,4.00
2022-10-15T00:48:48.582Z,4.00
2022-10-15T00:51:17.258Z,4.10
2022-10-15T00:53:44.281Z,4.20
2022-10-15T00:56:12.787Z,4.20
2022-10-15T00:58:39.869Z,4.20
2022-10-15T01:01:06.908Z,4.30
2022-10-15T01:03:36.018Z,4.30
2022-10-15T01:06:03.821Z,4.30
2022-10-15T01:08:30.951Z,4.30
2022-10-15T01:11:25.775Z,4.20
2022-10-15T01:14:21.787Z,4.20
2022-10-15T01:17:13.811Z,4.00
2022-10-15T01:19:46.460Z,4.10
2022-10-15T01:22:29.530Z,4.30
2022-10-15T01:25:24.562Z,4.40
2022-10-15T01:28:32.100Z,4.40
2022-10-15T01:31:13.957Z,4.50
2022-10-15T01:33:47.667Z,4.60
2022-10-15T01:36:36.409Z,4.60
2022-10-15T01:39:15.914Z,4.60
2022-10-15T01:41:47.608Z,4.70
2022-10-15T01:44:42.066Z,4.70
2022-10-15T01:47:21.582Z,4.80
2022-10-15T01:49:52.909Z,4.80
2022-10-15T01:52:27.419Z,4.80
2022-10-15T01:54:55.340Z,4.90
2022-10-15T01:57:26.151Z,4.90
2022-10-15T01:59:54.415Z,4.90
2022-10-15T02:02:21.938Z,4.90
2022-10-15T02:04:49.072Z,4.90
2022-10-15T02:07:40.129Z,5.00
2022-10-15T02:10:11.069Z,5.00
2022-10-15T02:13:04.884Z,5.10
2022-10-15T02:16:13.971Z,5.00
2022-10-15T02:18:46.290Z,5.20
2022-10-15T02:21:21.668Z,5.20
2022-10-15T02:23:51.788Z,5.20
2022-10-15T02:26:20.675Z,5.20
2022-10-15T02:28:53.218Z,5.10
2022-10-15T02:31:22.887Z,5.20
2022-10-15T02:33:52.295Z,5.30
2022-10-15T02:36:19.853Z,5.30
2022-10-15T02:38:49.530Z,5.40
2022-10-15T02:41:17.192Z,5.40
2022-10-15T02:43:44.238Z,5.40
2022-10-15T02:46:12.581Z,5.30
2022-10-15T02:48:39.559Z,5.30
2022-10-15T02:51:06.637Z,5.30
2022-10-15T02:53:33.669Z,5.30
2022-10-15T02:56:00.676Z,5.50
2022-10-15T02:58:29.282Z,5.50
2022-10-15T03:00:56.310Z,5.50
2022-10-15T03:03:23.626Z,5.40
2022-10-15T03:05:50.691Z,5.50
2022-10-15T03:08:17.619Z,5.50
2022-10-15T03:10:45.783Z,5.40
2022-10-15T03:13:12.883Z,5.40
2022-10-15T03:15:39.999Z,5.40
2022-10-15T03:18:07.592Z,5.50
2022-10-15T03:20:34.549Z,5.60
2022-10-15T03:23:01.617Z,5.50
2022-10-15T03:25:28.591Z,5.50
2022-10-15T03:27:57.075Z,5.50
2022-10-15T03:30:23.995Z,5.60
2022-10-15T03:32:51.024Z,5.70
2022-10-15T03:35:18.050Z,5.70
2022-10-15T03:37:44.974Z,5.50
2022-10-15T03:40:14.518Z,5.60
2022-10-15T03:42:41.677Z,5.60
2022-10-15T03:45:09.296Z,5.70
2022-10-15T03:47:36.198Z,5.70
2022-10-15T03:50:03.317Z,5.70
2022-10-15T03:52:30.563Z,5.80
2022-10-15T03:54:57.505Z,5.90
2022-10-15T03:57:24.468Z,5.70
2022-10-15T03:59:51.449Z,5.90
2022-10-15T04:02:18.408Z,5.90
2022-10-15T04:04:45.334Z,5.80
2022-10-15T04:07:12.294Z,5.80
2022-10-15T04:09:39.442Z,5.80
2022-10-15T04:12:06.629Z,5.80
2022-10-15T04:14:33.490Z,5.80
2022-10-15T04:17:00.632Z,5.80
2022-10-15T04:19:27.658Z,5.90
2022-10-15T04:21:54.729Z,6.10
2022-10-15T04:24:21.873Z,6.20
2022-10-15T04:26:48.837Z,6.40
2022-10-15T04:29:15.975Z,6.60
2022-10-15T04:31:42.964Z,6.60
2022-10-15T04:34:10.149Z,6.60
2022-10-15T04:36:37.187Z,6.80
2022-10-15T04:39:05.187Z,6.80
2022-10-15T04:41:32.175Z,7.10
2022-10-15T04:43:59.288Z,7.30
2022-10-15T04:46:26.262Z,7.50
2022-10-15T04:48:57.679Z,7.80
2022-10-15T04:51:26.119Z,7.80
2022-10-15T04:53:53.334Z,7.80
2022-10-15T04:56:21.648Z,7.90
2022-10-15T04:58:50.044Z,7.90
2022-10-15T05:01:19.922Z,8.00
2022-10-15T05:03:49.127Z,8.00
2022-10-15T05:06:21.507Z,8.00
2022-10-15T05:08:49.376Z,8.10
2022-10-15T05:11:26.947Z,8.20
2022-10-15T05:13:56.267Z,8.20
2022-10-15T05:16:26.101Z,8.20
2022-10-15T05:18:57.309Z,8.30
2022-10-15T05:21:24.678Z,8.40
2022-10-15T05:23:51.840Z,8.50
2022-10-15T05:26:22.435Z,8.50
2022-10-15T05:28:50.435Z,8.50
2022-10-15T05:31:20.043Z,8.60
2022-10-15T05:33:48.704Z,8.70
2022-10-15T05:36:24.319Z,8.70
2022-10-15T05:38:57.298Z,8.80
2022-10-15T05:41:25.864Z,8.90
2022-10-15T05:43:54.297Z,9.00
2022-10-15T05:46:21.988Z,9.00
2022-10-15T05:48:53.655Z,9.00
2022-10-15T05:51:21.134Z,8.90
2022-10-15T05:53:48.001Z,9.00
2022-10-15T05:56:16.125Z,9.00
2022-10-15T05:58:43.300Z,9.00
2022-10-15T06:01:12.641Z,9.00
2022-10-15T06:03:41.389Z,9.00
2022-10-15T06:06:22.708Z,9.00
2022-10-15T06:08:50.846Z,8.90
2022-10-15T06:11:18.941Z,8.80
2022-10-15T06:13:46.830Z,8.70
2022-10-15T06:16:17.984Z,8.70
2022-10-15T06:18:48.309Z,8.70
2022-10-15T06:21:15.194Z,8.90
2022-10-15T06:23:42.201Z,9.00
2022-10-15T06:26:10.243Z,9.10
2022-10-15T06:28:38.293Z,9.20
2022-10-15T06:31:06.616Z,9.30
2022-10-15T06:33:34.466Z,9.30
2022-10-15T06:36:07.333Z,9.30
2022-10-15T06:38:34.625Z,9.40
2022-10-15T06:41:05.337Z,9.40
2022-10-15T06:43:34.762Z,9.50
2022-10-15T06:46:04.215Z,9.60
2022-10-15T06:48:32.790Z,9.60
2022-10-15T06:51:01.201Z,9.60
2022-10-15T06:53:29.217Z,9.70
2022-10-15T06:56:03.344Z,9.70
2022-10-15T06:58:30.520Z,9.70
2022-10-15T07:01:06.089Z,9.70
2022-10-15T07:03:33.438Z,9.60
2022-10-15T07:06:05.511Z,9.70
2022-10-15T07:08:33.186Z,9.70
2022-10-15T07:11:05.105Z,9.70
2022-10-15T07:13:32.271Z,9.70
2022-10-15T07:16:03.125Z,9.80
2022-10-15T07:18:30.097Z,9.80
2022-10-15T07:20:57.566Z,9.80
2022-10-15T07:23:27.722Z,9.90
2022-10-15T07:25:57.285Z,10.00
2022-10-15T07:28:24.348Z,10.00
2022-10-15T07:30:51.756Z,9.90
2022-10-15T07:33:19.074Z,9.90
2022-10-15T07:35:46.169Z,9.70
2022-10-15T07:38:13.153Z,9.70
2022-10-15T07:40:40.090Z,9.60
2022-10-15T07:43:07.026Z,9.60
2022-10-15T07:45:34.043Z,9.50
2022-10-15T07:48:01.029Z,9.50
2022-10-15T07:50:32.234Z,9.60
2022-10-15T07:53:02.417Z,9.60
2022-10-15T07:55:29.354Z,9.60
2022-10-15T07:57:59.764Z,9.80
2022-10-15T08:00:26.963Z,9.80
2022-10-15T08:02:53.950Z,9.90
2022-10-15T08:05:20.963Z,9.90
2022-10-15T08:07:47.919Z,9.90
2022-10-15T08:10:15.001Z,9.90
2022-10-15T08:12:42.335Z,10.20
2022-10-15T08:15:09.669Z,10.20
2022-10-15T08:17:37.054Z,10.30
2022-10-15T08:20:04.374Z,10.30
2022-10-15T08:22:31.239Z,10.40
2022-10-15T08:24:58.541Z,10.40
2022-10-15T08:27:26.134Z,10.50
2022-10-15T08:29:53.106Z,10.40
2022-10-15T08:32:20.042Z,10.30
2022-10-15T08:34:46.991Z,10.20
2022-10-15T08:39:41.804Z,10.10
2022-10-15T08:42:23.111Z,10.00
2022-10-15T08:45:04.649Z,10.00
2022-10-15T08:47:38.397Z,9.90
2022-10-15T08:50:38.246Z,9.90
2022-10-15T08:53:05.419Z,9.80
2022-10-15T08:55:40.896Z,9.80
2022-10-15T08:58:21.092Z,9.70
2022-10-15T09:00:52.374Z,9.60
2022-10-15T09:03:31.593Z,9.60
2022-10-15T09:06:11.618Z,9.60
2022-10-15T09:08:50.195Z,9.50
2022-10-15T09:11:36.471Z,9.50
2022-10-15T09:14:07.833Z,9.50
2022-10-15T09:16:38.594Z,9.50
2022-10-15T09:19:12.402Z,9.40
2022-10-15T09:21:39.505Z,9.40
2022-10-15T09:24:06.681Z,9.40
2022-10-15T09:26:57.536Z,9.30
2022-10-15T09:29:33.337Z,9.30
2022-10-15T09:32:27.441Z,9.20
2022-10-15T09:35:01.988Z,9.20
2022-10-15T09:37:32.775Z,9.00
2022-10-15T09:40:45.191Z,9.10
2022-10-15T09:43:14.005Z,9.10
2022-10-15T09:45:40.897Z,9.10
2022-10-15T09:48:19.851Z,9.20
2022-10-15T09:51:18.561Z,9.20
2022-10-15T09:53:51.363Z,9.00
2022-10-15T09:56:28.313Z,9.00
2022-10-15T09:58:57.154Z,9.20
2022-10-15T10:01:26.864Z,9.20
2022-10-15T10:04:10.450Z,9.20
2022-10-15T10:07:01.968Z,9.10
2022-10-15T10:09:52.284Z,9.10
2022-10-15T10:12:23.304Z,9.10
2022-10-15T10:14:59.618Z,9.20
2022-10-15T10:17:28.956Z,9.10
2022-10-15T10:20:12.403Z,9.20
2022-10-15T10:23:11.422Z,8.90
2022-10-15T10:25:40.641Z,9.10
2022-10-15T10:28:18.949Z,8.80
2022-10-15T10:30:58.562Z,9.10
2022-10-15T10:33:43.573Z,8.90
2022-10-15T10:36:24.389Z,9.00
2022-10-15T10:39:00.342Z,8.80
2022-10-15T10:42:06.049Z,9.30
2022-10-15T10:44:41.462Z,8.90
2022-10-15T10:47:10.615Z,8.80
2022-10-15T10:49:51.933Z,8.80
2022-10-15T10:52:21.480Z,8.80
2022-10-15T10:55:04.945Z,9.10
2022-10-15T10:57:48.893Z,9.40
2022-10-15T11:00:24.521Z,9.80
2022-10-15T11:02:52.921Z,10.10
2022-10-15T11:05:26.863Z,10.10
2022-10-15T11:08:02.614Z,10.00
2022-10-15T11:10:53.832Z,10.40
2022-10-15T11:13:41.337Z,10.40
2022-10-15T11:16:15.657Z,10.50
2022-10-15T11:19:18.754Z,10.80
2022-10-15T11:22:32.793Z,10.80
2022-10-15T11:25:25.998Z,11.00
2022-10-15T11:28:24.100Z,11.10
2022-10-15T11:31:10.870Z,11.10
2022-10-15T11:34:01.027Z,10.90
2022-10-15T11:36:52.260Z,11.30
2022-10-15T11:39:48.200Z,11.30
2022-10-15T11:42:25.832Z,11.40
2022-10-15T11:45:14.944Z,11.20
2022-10-15T11:47:54.425Z,11.10
2022-10-15T11:50:41.337Z,10.90
2022-10-15T11:53:11.059Z,10.90
2022-10-15T11:56:07.761Z,10.70
2022-10-15T11:58:50.322Z,10.60
2022-10-15T12:01:20.333Z,11.10
2022-10-15T12:03:57.520Z,11.80
2022-10-15T12:06:29.345Z,12.30
2022-10-15T12:08:57.895Z,13.10
2022-10-15T12:11:27.863Z,13.40
2022-10-15T12:14:13.684Z,13.90
2022-10-15T12:16:54.080Z,13.30
2022-10-15T12:19:26.146Z,13.70
2022-10-15T12:21:56.045Z,14.40
2022-10-15T12:24:38.409Z,14.90
2022-10-15T12:27:36.202Z,16.50
2022-10-15T12:30:03.130Z,15.40
2022-10-15T12:32:38.557Z,15.70
2022-10-15T12:35:18.417Z,15.30
2022-10-15T12:37:48.144Z,16.20
2022-10-15T12:40:29.397Z,18.00
2022-10-15T12:42:58.050Z,17.10
2022-10-15T12:45:40.452Z,15.80
2022-10-15T12:48:16.781Z,16.20
2022-10-15T12:50:43.915Z,17.40
2022-10-15T12:53:26.339Z,16.90
2022-10-15T12:56:11.979Z,16.80
2022-10-15T12:58:40.669Z,16.30
2022-10-15T13:01:27.666Z,16.20
2022-10-15T13:03:57.562Z,18.20
2022-10-15T13:06:30.926Z,17.30
2022-10-15T13:09:10.023Z,17.70
2022-10-15T13:11:43.744Z,17.20
2022-10-15T13:14:38.643Z,16.10
2022-10-15T13:17:18.579Z,16.90
2022-10-15T13:19:58.582Z,17.70
2022-10-15T13:22:34.164Z,18.10
2022-10-15T13:25:01.289Z,18.20
2022-10-15T13:27:33.962Z,18.20
2022-10-15T13:30:03.773Z,18.50
2022-10-15T13:32:33.719Z,18.40
2022-10-15T13:35:02.489Z,18.60
2022-10-15T13:37:36.037Z,17.50
2022-10-15T13:40:07.831Z,17.50
2022-10-15T13:42:35.913Z,16.90
2022-10-15T13:45:04.443Z,16.30
2022-10-15T13:47:35.348Z,15.20
2022-10-15T13:50:20.648Z,15.50
2022-10-15T13:52:49.886Z,15.30
2022-10-15T13:55:19.708Z,15.30
2022-10-15T13:57:48.982Z,16.00
2022-10-15T14:00:33.786Z,15.40
2022-10-15T14:03:19.694Z,15.10
2022-10-15T14:05:48.974Z,15.20
2022-10-15T14:08:21.791Z,14.90
2022-10-15T14:10:50.217Z,14.50
2022-10-15T14:13:17.237Z,14.30
2022-10-15T14:15:56.740Z,14.70
2022-10-15T14:18:51.516Z,16.40
2022-10-15T14:21:22.092Z,18.70
2022-10-15T14:23:50.371Z,19.90
2022-10-15T14:26:24.245Z,20.60
2022-10-15T14:28:52.220Z,22.30
2022-10-15T14:31:41.069Z,21.60
2022-10-15T14:34:28.665Z,21.10
2022-10-15T14:36:55.683Z,20.30
2022-10-15T14:39:34.752Z,19.80
2022-10-15T14:42:06.085Z,19.60
2022-10-15T14:44:42.132Z,18.50
2022-10-15T14:47:20.972Z,18.60
2022-10-15T14:49:48.887Z,18.00
2022-10-15T14:52:20.488Z,18.10
2022-10-15T14:55:00.999Z,18.20
2022-10-15T14:57:32.177Z,17.50
2022-10-15T15:00:00.256Z,16.80
2022-10-15T15:02:28.972Z,16.70
2022-10-15T15:05:14.021Z,17.00
2022-10-15T15:07:41.048Z,16.00
2022-10-15T15:10:09.008Z,16.50
2022-10-15T15:12:38.130Z,16.40
2022-10-15T15:15:12.737Z,15.60
2022-10-15T15:17:40.167Z,16.10
2022-10-15T15:20:07.500Z,15.30
2022-10-15T15:22:35.614Z,14.90
2022-10-15T15:25:07.286Z,14.50
2022-10-15T15:27:37.367Z,14.20
2022-10-15T15:30:06.796Z,14.00
2022-10-15T15:32:34.441Z,13.80
2022-10-15T15:35:01.284Z,13.70
2022-10-15T15:37:30.278Z,13.30
2022-10-15T15:39:57.212Z,13.00
2022-10-15T15:42:25.724Z,13.10
2022-10-15T15:44:52.892Z,12.80
2022-10-15T15:47:19.801Z,12.80
2022-10-15T15:49:46.739Z,12.50
2022-10-15T15:52:14.145Z,12.50
2022-10-15T15:54:41.651Z,12.50
2022-10-15T15:57:08.665Z,12.40
2022-10-15T15:59:35.569Z,12.40
2022-10-15T16:02:02.568Z,12.50
2022-10-15T16:04:29.521Z,12.40
2022-10-15T16:06:56.527Z,12.40
2022-10-15T16:09:23.694Z,12.50
2022-10-15T16:11:51.183Z,12.60
2022-10-15T16:14:18.164Z,12.70
2022-10-15T16:16:45.313Z,12.70
2022-10-15T16:19:12.276Z,12.70
2022-10-15T16:21:39.294Z,12.70
2022-10-15T16:24:06.487Z,12.70
2022-10-15T16:26:33.377Z,12.70
2022-10-15T16:29:00.297Z,12.80
2022-10-15T16:31:57.603Z,12.80
2022-10-15T16:34:26.693Z,12.80
2022-10-15T16:36:53.700Z,12.80
2022-10-15T16:39:20.630Z,12.90
2022-10-15T16:41:47.493Z,12.80
2022-10-15T16:44:14.376Z,12.60
2022-10-15T16:46:41.460Z,12.00
2022-10-15T16:49:11.807Z,12.00
2022-10-15T16:51:41.358Z,11.90
2022-10-15T16:54:18.242Z,11.90
2022-10-15T16:56:53.109Z,12.00
2022-10-15T16:59:25.087Z,12.00
2022-10-15T17:01:55.133Z,12.00
2022-10-15T17:04:22.087Z,11.90
2022-10-15T17:06:51.695Z,12.00
2022-10-15T17:09:18.667Z,11.80
2022-10-15T17:11:48.489Z,11.90
2022-10-15T17:14:17.169Z,11.80
2022-10-15T17:16:54.742Z,11.80
2022-10-15T17:19:33.361Z,11.70
2022-10-15T17:22:01.317Z,11.80
2022-10-15T17:24:28.286Z,11.50
2022-10-15T17:26:57.938Z,11.30
2022-10-15T17:29:27.845Z,11.30
2022-10-15T17:31:57.858Z,10.80
2022-10-15T17:34:27.473Z,10.90
2022-10-15T17:36:56.122Z,10.60
2022-10-15T17:39:23.211Z,10.60
2022-10-15T17:41:51.750Z,10.50
2022-10-15T17:44:18.945Z,10.40
2022-10-15T17:46:46.285Z,10.30
2022-10-15T17:49:18.259Z,10.10
2022-10-15T17:51:45.888Z,10.30
2022-10-15T17:54:13.051Z,10.10
2022-10-15T17:56:40.387Z,10.10
2022-10-15T17:59:10.635Z,10.30
2022-10-15T18:01:57.171Z,10.10
2022-10-15T18:04:25.553Z,10.00
2022-10-15T18:06:52.441Z,9.80
2022-10-15T18:09:19.300Z,9.70
2022-10-15T18:11:46.620Z,9.80
2022-10-15T18:14:13.562Z,9.70
2022-10-15T18:16:40.495Z,9.60
2022-10-15T18:19:07.436Z,9.80
2022-10-15T18:21:34.406Z,10.10
2022-10-15T18:24:01.346Z,10.20
2022-10-15T18:26:28.367Z,10.00
2022-10-15T18:28:55.448Z,10.10
2022-10-15T18:31:22.795Z,10.10
2022-10-15T18:33:55.614Z,10.00
2022-10-15T18:36:27.755Z,10.20
2022-10-15T18:38:55.408Z,10.40
2022-10-15T18:41:28.221Z,10.30
2022-10-15T18:43:57.300Z,10.50
2022-10-15T18:46:24.728Z,10.40
2022-10-15T18:48:51.601Z,9.90
2022-10-15T18:51:18.793Z,10.00
2022-10-15T18:53:45.983Z,9.90
2022-10-15T18:56:14.043Z,9.90
2022-10-15T18:58:44.677Z,10.00
2022-10-15T19:01:29.550Z,10.00
2022-10-15T19:04:02.352Z,9.80
2022-10-15T19:06:33.046Z,9.90
2022-10-15T19:09:01.623Z,9.90
2022-10-15T19:11:29.339Z,9.80
2022-10-15T19:14:00.758Z,9.80
2022-10-15T19:16:28.398Z,9.90
2022-10-15T19:18:55.317Z,9.80
2022-10-15T19:21:22.386Z,9.90
2022-10-15T19:23:49.345Z,10.00
2022-10-15T19:26:16.703Z,9.80
2022-10-15T19:28:44.280Z,9.90
2022-10-15T19:31:29.845Z,9.90
2022-10-15T19:34:00.074Z,10.00
2022-10-15T19:36:31.878Z,10.10
2022-10-15T19:39:02.305Z,10.00
2022-10-15T19:41:29.230Z,10.00
2022-10-15T19:43:56.403Z,10.00
2022-10-15T19:46:23.366Z,9.90
2022-10-15T19:48:50.231Z,9.90
2022-10-15T19:51:17.148Z,9.90
2022-10-15T19:53:43.996Z,9.90
2022-10-15T19:56:11.656Z,9.90
2022-10-15T19:58:38.508Z,9.90
2022-10-15T20:01:05.742Z,9.90
2022-10-15T20:03:32.869Z,9.90
2022-10-15T20:05:59.796Z,10.00
2022-10-15T20:08:26.724Z,10.00
2022-10-15T20:10:53.697Z,10.10
2022-10-15T20:13:22.416Z,10.10
2022-10-15T20:15:52.178Z,10.10
2022-10-15T20:18:20.501Z,10.20
2022-10-15T20:20:48.271Z,10.20
2022-10-15T20:23:16.767Z,10.30
2022-10-15T20:25:44.761Z,10.30
2022-10-15T20:28:13.174Z,10.40
2022-10-15T20:30:40.926Z,10.40
2022-10-15T20:33:08.405Z,10.40
2022-10-15T20:35:36.141Z,10.40
2022-10-15T20:38:03.681Z,10.40
2022-10-15T20:40:30.972Z,10.40
2022-10-15T20:42:57.857Z,10.50
2022-10-15T20:45:29.215Z,10.50
2022-10-15T20:47:57.743Z,10.50
2022-10-15T20:50:34.459Z,10.60
2022-10-15T20:53:02.225Z,10.60
2022-10-15T20:55:29.093Z,10.60
2022-10-15T20:57:56.018Z,10.60
2022-10-15T21:00:23.551Z,10.60
2022-10-15T21:02:50.438Z,10.70
2022-10-15T21:05:17.444Z,10.70
2022-10-15T21:07:44.297Z,10.70
2022-10-15T21:10:11.277Z,10.70
2022-10-15T21:12:38.849Z,10.60
2022-10-15T21:15:06.356Z,10.60
2022-10-15T21:17:33.360Z,10.60
2022-10-15T21:20:00.455Z,10.60
2022-10-15T21:22:27.376Z,10.50
2022-10-15T21:24:54.210Z,10.60
2022-10-15T21:27:21.117Z,10.50
2022-10-15T21:29:49.502Z,10.50
2022-10-15T21:32:16.510Z,10.40
2022-10-15T21:34:43.399Z,10.40
2022-10-15T21:37:10.479Z,10.40
2022-10-15T21:39:37.443Z,10.30
2022-10-15T21:42:04.368Z,10.30
2022-10-15T21:44:31.255Z,10.20
2022-10-15T21:46:58.153Z,10.20
2022-10-15T21:49:25.111Z,10.20
2022-10-15T21:51:51.979Z,10.20
2022-10-15T21:54:18.932Z,10.20
2022-10-15T21:56:45.788Z,10.30
2022-10-15T21:59:12.781Z,10.20
2022-10-15T22:01:42.225Z,10.20
2022-10-15T22:04:10.723Z,10.10
2022-10-15T22:06:42.346Z,10.10
2022-10-15T22:09:10.443Z,10.10
2022-10-15T22:11:40.201Z,10.10
2022-10-15T22:14:09.980Z,10.00
2022-10-15T22:16:38.639Z,10.00
2022-10-15T22:19:06.310Z,10.00
2022-10-15T22:21:36.551Z,10.00
2022-10-15T22:24:08.099Z,9.90
2022-10-15T22:26:38.326Z,10.00
2022-10-15T22:29:07.003Z,9.90
2022-10-15T22:31:34.238Z,9.90
2022-10-15T22:34:01.710Z,9.90
2022-10-15T22:36:30.815Z,9.80
2022-10-15T22:39:02.646Z,9.80
2022-10-15T22:41:31.429Z,9.80
2022-10-15T22:43:58.492Z,9.80
2022-10-15T22:46:26.333Z,9.80
2022-10-15T22:48:53.797Z,9.80
2022-10-15T22:51:21.253Z,9.70
2022-10-15T22:53:48.372Z,9.80
2022-10-15T22:56:17.779Z,9.70
2022-10-15T22:58:45.481Z,9.70
2022-10-15T23:01:21.082Z,9.70
2022-10-15T23:03:50.497Z,9.70
2022-10-15T23:06:18.659Z,9.60
2022-10-15T23:08:47.420Z,9.60
2022-10-15T23:11:16.014Z,9.60
2022-10-15T23:13:44.009Z,9.60
2022-10-15T23:16:16.369Z,9.60
2022-10-15T23:18:44.538Z,9.60
2022-10-15T23:21:27.681Z,9.50
2022-10-15T23:23:54.633Z,9.50
2022-10-15T23:26:21.653Z,9.50
2022-10-15T23:28:54.007Z,9.50
2022-10-15T23:31:24.540Z,9.50
2022-10-15T23:33:52.616Z,9.50
2022-10-15T23:36:20.897Z,9.50
2022-10-15T23:38:56.424Z,9.60
2022-10-15T23:41:24.491Z,9.60
2022-10-15T23:43:52.031Z,9.60
2022-10-15T23:46:19.108Z,9.60
2022-10-15T23:48:46.718Z,9.60
2022-10-15T23:51:13.550Z,9.60
2022-10-15T23:53:41.015Z,9.60
2022-10-15T23:56:08.021Z,9.60
2022-10-15T23:58:34.945Z,9.60
